Time;durP1;ratioP1;P1;durP2;ratioP2;P2;SDS_P1;SDS_P2;PMS_P1;PMS_P2;Temp;Humidity;BMP_temperature;BMP_pressure;BME280_temperature;BME280_humidity;BME280_pressure;Samples;Min_cycle;Max_cycle;Signal;HPM_P1;HPM_P2
2021/05/28 00:01:16;;;;;;;;;59.25;48.75;;;;;19.45;64.27;101109.88;5112656;28;10979;-76
2021/05/28 00:04:11;;;;;;;;;68.00;54.25;;;;;19.34;64.73;101104.16;5112831;28;10904;-76
2021/05/28 00:07:07;;;;;;;;;72.00;58.75;;;;;19.31;64.20;101107.69;5132427;27;11228;-76
2021/05/28 00:10:04;;;;;;;;;70.25;55.50;;;;;19.30;64.36;101102.47;5119598;27;11446;-76
2021/05/28 00:13:00;;;;;;;;;77.25;69.00;;;;;19.07;64.83;101106.16;5119686;27;11468;-76
2021/05/28 00:15:56;;;;;;;;;90.25;81.00;;;;;19.06;65.11;101096.16;5132717;27;11593;-77
2021/05/28 00:18:42;;;;;;;;;107.00;95.25;;;;;18.97;64.89;101100.41;5118485;27;11527;-76
2021/05/28 00:21:38;;;;;;;;;108.75;102.50;;;;;19.03;64.88;101101.72;5133346;27;11524;-76
2021/05/28 00:24:07;;;;;;;;;113.00;105.00;;;;;19.13;64.26;101092.63;5133372;27;11540;-76
2021/05/28 00:27:03;;;;;;;;;144.33;125.00;;;;;19.28;63.14;101100.06;5132753;27;11563;-76
2021/05/28 00:29:59;;;;;;;;;148.33;135.00;;;;;19.23;63.25;101097.56;5133139;27;11590;-76
2021/05/28 00:32:55;;;;;;;;;170.00;147.67;;;;;19.13;63.19;101089.84;5132725;27;8819;-76
2021/05/28 00:35:51;;;;;;;;;116.33;98.67;;;;;19.06;63.69;101084.94;5132899;27;8835;-76
2021/05/28 00:38:48;;;;;;;;;152.00;132.33;;;;;18.96;64.48;101088.41;5132610;27;12358;-76
2021/05/28 00:41:43;;;;;;;;;144.67;126.33;;;;;18.72;65.03;101083.25;5133113;27;8823;-76
2021/05/28 00:44:41;;;;;;;;;133.25;114.75;;;;;18.61;65.79;101081.03;5123395;27;11568;-76
2021/05/28 00:47:36;;;;;;;;;127.67;113.33;;;;;18.65;65.71;101075.50;5136731;27;11541;-75
2021/05/28 00:50:32;;;;;;;;;129.50;115.75;;;;;18.74;65.20;101072.47;5136850;27;11573;-76
2021/05/28 00:53:17;;;;;;;;;134.00;113.75;;;;;18.72;65.12;101072.03;5137724;27;11547;-76
2021/05/28 00:56:15;;;;;;;;;130.75;112.75;;;;;18.68;65.68;101063.56;5122808;27;12310;-77
2021/05/28 00:59:13;;;;;;;;;140.25;118.75;;;;;18.55;66.12;101062.91;5136469;27;11607;-76
2021/05/28 01:01:55;;;;;;;;;137.00;119.67;;;;;18.47;66.39;101055.59;5116169;28;12308;-76
2021/05/28 01:04:23;;;;;;;;;107.00;95.00;;;;;18.33;66.83;101053.38;5116898;28;11642;-76
2021/05/28 01:07:19;;;;;;;;;126.75;117.00;;;;;18.48;66.63;101048.00;5116559;28;11565;-76
2021/05/28 01:10:15;;;;;;;;;121.75;113.00;;;;;18.68;66.77;101052.34;5116120;28;12337;-76
2021/05/28 01:13:11;;;;;;;;;121.50;110.00;;;;;18.68;66.15;101045.94;5102567;28;11682;-76
2021/05/28 01:16:07;;;;;;;;;128.33;115.00;;;;;18.54;66.42;101052.09;5115650;28;11584;-76
2021/05/28 01:18:50;;;;;;;;;123.33;110.67;;;;;18.37;66.71;101041.44;5116696;28;8834;-76
2021/05/28 01:21:32;;;;;;;;;119.50;108.00;;;;;18.18;67.41;101037.53;5116254;28;11701;-77
2021/05/28 01:24:28;;;;;;;;;114.00;102.25;;;;;18.31;67.20;101040.94;5102364;28;11685;-76
2021/05/28 01:27:26;;;;;;;;;117.50;105.25;;;;;18.50;67.35;101024.06;5114777;28;11588;-77
2021/05/28 01:30:24;;;;;;;;;109.75;100.75;;;;;18.56;66.21;101021.75;5110206;27;11639;-77
2021/05/28 01:33:19;;;;;;;;;95.50;80.50;;;;;18.42;65.73;101027.94;5135160;27;11571;-77
2021/05/28 01:36:15;;;;;;;;;69.25;56.75;;;;;18.35;65.65;101033.41;5122336;27;11547;-77
2021/05/28 01:39:11;;;;;;;;;65.00;52.00;;;;;18.32;65.47;101034.16;5135906;27;11643;-77
2021/05/28 01:42:06;;;;;;;;;68.00;55.00;;;;;18.13;66.36;101023.84;5135750;27;11019;-77
2021/05/28 01:45:04;;;;;;;;;72.00;59.00;;;;;18.08;66.67;101026.94;5135852;27;11470;-76
2021/05/28 01:48:02;;;;;;;;;76.50;61.25;;;;;18.01;67.00;101019.25;5135708;27;11444;-77
2021/05/28 01:50:47;;;;;;;;;84.25;76.75;;;;;17.89;67.65;101021.44;5136820;27;11483;-76
2021/05/28 01:53:43;;;;;;;;;107.25;94.50;;;;;17.67;67.93;101031.38;5134770;27;11524;-76
2021/05/28 01:56:40;;;;;;;;;157.33;135.33;;;;;17.67;68.26;101029.41;5121762;27;11574;-76
2021/05/28 01:59:36;;;;;;;;;153.00;133.67;;;;;17.66;68.38;101036.16;5122370;27;8839;-76
2021/05/28 02:02:32;;;;;;;;;157.33;124.67;;;;;17.73;68.26;101035.53;5122035;27;8851;-76
2021/05/28 02:05:27;;;;;;;;;124.33;105.00;;;;;17.97;68.20;101037.97;5122167;27;8927;-76
2021/05/28 02:08:23;;;;;;;;;150.67;135.00;;;;;17.90;68.01;101026.66;5122516;27;8851;-75
2021/05/28 02:11:18;;;;;;;;;151.00;130.00;;;;;18.04;67.63;101038.09;5135171;27;8823;-76
2021/05/28 02:14:14;;;;;;;;;204.00;175.33;;;;;18.14;67.16;101033.06;5120272;27;8920;-75
2021/05/28 02:16:42;;;;;;;;;155.50;127.50;;;;;18.26;66.31;101032.88;5136326;27;9631;-76
2021/05/28 02:19:38;;;;;;;;;279.50;220.75;;;;;18.34;66.39;101032.59;5135136;27;8833;-76
2021/05/28 02:22:10;;;;;;;;;278.25;236.00;;;;;18.45;65.75;101032.75;5117981;27;8873;-76
2021/05/28 02:25:07;;;;;;;;;286.00;237.00;;;;;18.45;65.64;101027.16;5134836;27;8839;-76
2021/05/28 02:27:36;;;;;;;;;228.25;196.50;;;;;18.31;66.45;101030.53;5117599;27;8929;-76
2021/05/28 02:30:32;;;;;;;;;253.75;205.75;;;;;18.09;67.43;101038.94;5101400;28;8925;-76
2021/05/28 02:33:27;;;;;;;;;245.25;202.75;;;;;18.11;67.76;101036.63;5101995;28;8961;-76
2021/05/28 02:36:23;;;;;;;;;211.75;173.50;;;;;18.13;68.03;101023.84;5100774;28;8859;-76
2021/05/28 02:39:18;;;;;;;;;250.00;211.75;;;;;18.30;67.88;101022.53;5133714;27;8807;-76
2021/05/28 02:42:14;;;;;;;;;238.75;197.25;;;;;18.46;68.16;101023.16;5114058;28;8866;-76
2021/05/28 02:45:10;;;;;;;;;227.75;195.25;;;;;18.48;66.45;101018.03;5101240;28;8809;-77
2021/05/28 02:47:39;;;;;;;;;243.50;207.50;;;;;18.53;66.88;101014.88;5115355;28;8837;-76
2021/05/28 02:50:35;;;;;;;;;200.00;180.00;;;;;18.45;66.57;101015.97;5113983;28;9583;-76
2021/05/28 02:53:34;;;;;;;;;221.25;188.25;;;;;18.26;67.29;101016.06;5119837;27;8815;-76
2021/05/28 02:56:32;;;;;;;;;196.25;178.50;;;;;18.16;67.88;101017.50;5134480;27;8842;-76
2021/05/28 02:59:27;;;;;;;;;205.75;182.75;;;;;18.21;68.20;101019.19;5134528;27;9545;-76
2021/05/28 03:02:23;;;;;;;;;202.50;180.00;;;;;18.30;68.91;101020.53;5120589;27;9020;-76
2021/05/28 03:05:19;;;;;;;;;209.50;183.75;;;;;18.35;68.38;101022.22;5133758;27;8812;-75
2021/05/28 03:08:14;;;;;;;;;195.00;163.33;;;;;18.66;67.52;101017.50;5120608;27;9635;-75
2021/05/28 03:11:10;;;;;;;;;152.67;133.00;;;;;18.76;66.83;101019.66;5134373;27;8959;-76
2021/05/28 03:14:09;;;;;;;;;159.00;140.00;;;;;19.00;66.65;101021.16;5133606;27;8843;-75
2021/05/28 03:16:37;;;;;;;;;158.67;139.00;;;;;19.21;65.93;101026.25;5135302;27;9630;-74
2021/05/28 03:19:41;;;;;;;;;141.00;128.67;;;;;19.24;65.46;101023.47;5119692;27;8861;-75
2021/05/28 03:22:37;;;;;;;;;147.00;128.33;;;;;19.27;65.52;101019.13;5133464;27;11556;-76
2021/05/28 03:25:32;;;;;;;;;147.00;134.67;;;;;19.10;66.35;101021.31;5133088;27;8969;-75
2021/05/28 03:28:28;;;;;;;;;161.67;140.00;;;;;19.16;66.89;101019.78;5099564;28;8881;-76
2021/05/28 03:31:16;;;;;;;;;131.67;116.00;;;;;19.45;68.25;101020.13;5126325;27;8836;-76
2021/05/28 03:33:44;;;;;;;;;134.00;117.25;;;;;19.62;66.55;101018.72;5133838;27;9603;-74
2021/05/28 03:36:35;;;;;;;;;79.00;69.25;;;;;19.58;63.49;101018.72;5128096;27;11640;-75
2021/05/28 03:39:31;;;;;;;;;77.25;65.75;;;;;19.79;64.02;101026.56;5117323;27;11446;-75
2021/05/28 03:42:27;;;;;;;;;79.00;70.50;;;;;19.91;63.22;101029.06;5104570;27;11465;-76
2021/05/28 03:44:55;;;;;;;;;68.50;54.25;;;;;19.96;61.88;101030.72;5116454;27;11478;-76
2021/05/28 03:47:26;;;;;;;;;69.00;53.75;;;;;19.94;60.47;101027.50;5116762;27;10931;-75
2021/05/28 03:50:25;;;;;;;;;78.75;57.50;;;;;20.28;63.14;101029.00;5133672;27;10658;-76
2021/05/28 03:53:21;;;;;;;;;73.50;58.75;;;;;20.32;61.60;101028.19;5133278;27;11354;-75
2021/05/28 03:56:17;;;;;;;;;114.75;102.00;;;;;20.56;63.69;101027.63;5133292;27;11402;-75
2021/05/28 03:59:13;;;;;;;;;73.50;63.25;;;;;20.65;60.17;101027.28;5132810;27;11572;-77
2021/05/28 04:01:41;;;;;;;;;76.25;63.75;;;;;20.74;60.22;101034.16;5134372;27;11474;-77
2021/05/28 04:04:38;;;;;;;;;72.75;62.25;;;;;20.55;60.39;101031.63;5133861;27;11459;-77
2021/05/28 04:07:08;;;;;;;;;67.25;54.75;;;;;20.64;59.54;101034.09;5110263;27;11015;-77
2021/05/28 04:09:36;;;;;;;;;71.50;60.75;;;;;20.57;59.68;101034.84;5134290;27;10830;-77
2021/05/28 04:12:20;;;;;;;;;69.50;56.25;;;;;20.78;59.68;101028.56;5134915;27;11179;-76
2021/05/28 04:15:15;;;;;;;;;67.75;54.25;;;;;20.83;59.16;101029.00;5132735;27;11613;-77
2021/05/28 04:17:44;;;;;;;;;73.25;60.75;;;;;20.82;59.17;101023.78;5115127;27;10954;-75
2021/05/28 04:20:43;;;;;;;;;70.00;56.50;;;;;21.00;59.02;101021.03;5120617;27;11166;-77
2021/05/28 04:23:39;;;;;;;;;70.00;56.75;;;;;21.08;58.44;101028.31;5119275;27;11231;-76
2021/05/28 04:26:07;;;;;;;;;73.75;59.50;;;;;21.14;59.15;101021.13;5132945;27;11022;-76
2021/05/28 04:28:35;;;;;;;;;79.00;68.75;;;;;21.42;58.18;101020.44;5134423;27;10908;-77
2021/05/28 04:31:03;;;;;;;;;77.75;69.50;;;;;21.43;58.88;101019.25;5134374;27;10975;-77
2021/05/28 04:33:31;;;;;;;;;74.00;61.25;;;;;21.52;58.23;101016.84;5115974;27;11143;-78
2021/05/28 04:35:59;;;;;;;;;81.00;65.25;;;;;21.72;58.64;101010.88;5133785;27;10889;-77
2021/05/28 04:38:55;;;;;;;;;77.25;68.25;;;;;22.11;57.89;101008.13;5132065;27;10998;-77
2021/05/28 04:42:02;;;;;;;;;77.00;64.75;;;;;22.46;58.45;101002.47;5132097;27;10958;-76
2021/05/28 04:45:07;;;;;;;;;65.75;52.25;;;;;22.90;58.16;101018.09;5131726;27;11039;-76
2021/05/28 04:47:42;;;;;;;;;76.25;63.50;;;;;23.14;58.92;101012.78;5113060;27;11129;-76
2021/05/28 04:50:32;;;;;;;;;70.50;58.75;;;;;23.35;58.58;101006.25;5132374;27;10902;-76
2021/05/28 04:53:07;;;;;;;;;79.50;71.75;;;;;23.60;58.69;101015.41;5113869;27;10590;-76
2021/05/28 04:55:41;;;;;;;;;64.25;51.75;;;;;23.76;55.44;101014.91;5128623;27;10559;-76
2021/05/28 04:58:12;;;;;;;;;70.00;57.50;;;;;23.86;54.79;101014.03;5114789;27;9420;-76
2021/05/28 05:01:07;;;;;;;;;70.25;57.75;;;;;24.02;55.16;101011.50;5100135;27;9801;-76
2021/05/28 05:03:36;;;;;;;;;49.75;42.25;;;;;24.05;52.24;101012.69;5114163;27;10029;-76
2021/05/28 05:06:04;;;;;;;;;29.75;20.75;;;;;24.30;49.86;101013.25;5114142;27;8843;-76
2021/05/28 05:09:00;;;;;;;;;55.75;46.00;;;;;24.61;52.04;101011.41;5131905;27;9387;-76
2021/05/28 05:11:55;;;;;;;;;62.00;50.33;;;;;24.79;50.48;101014.03;5127796;28;8836;-76
2021/05/28 05:14:51;;;;;;;;;77.00;67.25;;;;;25.01;51.13;101017.44;5117302;27;10076;-76
2021/05/28 05:17:42;;;;;;;;;95.00;87.25;;;;;25.05;49.66;101008.91;5129325;27;9856;-76
2021/05/28 05:20:11;;;;;;;;;86.75;83.00;;;;;25.22;49.51;101010.72;5132908;27;10835;-75
2021/05/28 05:23:06;;;;;;;;;78.25;73.00;;;;;25.45;50.09;101007.19;5121319;27;11919;-75
2021/05/28 05:25:37;;;;;;;;;74.25;65.25;;;;;25.59;49.86;101000.50;5132332;27;10510;-76
2021/05/28 05:28:05;;;;;;;;;71.00;57.50;;;;;25.91;48.58;101012.19;5127230;27;10123;-74
2021/05/28 05:31:03;;;;;;;;;67.00;54.00;;;;;26.03;47.37;100999.47;5127025;27;9680;-75
2021/05/28 05:33:49;;;;;;;;;56.75;45.75;;;;;26.32;46.28;100991.28;5114397;27;8835;-76
2021/05/28 05:36:45;;;;;;;;;48.00;40.75;;;;;26.52;45.20;100983.63;5122602;27;8847;-75
2021/05/28 05:39:13;;;;;;;;;26.00;26.00;;;;;26.59;43.17;100994.03;5118934;27;8843;-76
2021/05/28 05:41:41;;;;;;;;;24.00;24.00;;;;;26.59;41.37;100996.88;5118791;27;8835;-77
2021/05/28 05:44:16;;;;;;;;;21.60;21.60;;;;;26.67;40.85;100983.34;5120540;27;8843;-77
2021/05/28 05:46:45;;;;;;;;;17.80;16.20;;;;;26.85;41.21;100987.47;5137228;27;8843;-76
2021/05/28 05:49:12;;;;;;;;;12.60;12.60;;;;;27.15;40.49;100999.88;5136977;27;8973;-76
2021/05/28 05:51:42;;;;;;;;;32.00;30.50;;;;;27.36;41.43;100995.75;5119331;27;8831;-77
2021/05/28 05:54:13;;;;;;;;;11.00;11.00;;;;;27.08;39.18;100994.34;5119375;27;8851;-79
2021/05/28 05:56:43;;;;;;;;;21.80;20.60;;;;;27.11;40.82;100987.78;5137397;27;8839;-77
2021/05/28 05:59:11;;;;;;;;;4.40;4.40;;;;;27.07;38.76;100996.38;5137081;27;8847;-79
2021/05/28 06:01:38;;;;;;;;;6.20;6.20;;;;;27.14;38.36;100999.06;5137037;27;8846;-78
2021/05/28 06:04:06;;;;;;;;;10.80;10.20;;;;;27.37;37.56;100988.81;5118879;27;8831;-78
2021/05/28 06:06:33;;;;;;;;;11.00;10.80;;;;;27.51;38.43;100979.97;5136910;27;8869;-78
2021/05/28 06:09:03;;;;;;;;;11.60;11.60;;;;;27.64;38.04;100988.63;5136292;27;8863;-77
2021/05/28 06:11:35;;;;;;;;;10.40;10.40;;;;;27.70;38.36;100984.06;5136181;27;8835;-77
2021/05/28 06:14:03;;;;;;;;;5.00;5.00;;;;;27.65;36.53;100973.19;5136505;27;8871;-81
2021/05/28 06:16:34;;;;;;;;;5.60;5.60;;;;;27.60;36.50;100976.53;5136429;27;8831;-78
2021/05/28 06:19:02;;;;;;;;;6.20;6.20;;;;;27.77;37.44;100978.19;5118227;27;8840;-77
2021/05/28 06:21:34;;;;;;;;;16.60;15.60;;;;;27.83;37.90;100976.41;5118530;27;8839;-79
2021/05/28 06:24:02;;;;;;;;;8.40;8.40;;;;;28.12;34.83;100978.56;5117674;27;8824;-77
2021/05/28 06:26:34;;;;;;;;;5.60;5.60;;;;;28.36;35.37;100970.63;5136463;27;8882;-77
2021/05/28 06:29:03;;;;;;;;;7.20;7.20;;;;;28.59;35.93;100972.47;5134593;27;8884;-78
2021/05/28 06:31:53;;;;;;;;;7.00;7.00;;;;;28.52;35.61;100970.59;5117641;27;8863;-78
2021/05/28 06:34:21;;;;;;;;;10.20;10.20;;;;;28.53;34.37;100967.34;5133721;27;8884;-79
2021/05/28 06:37:17;;;;;;;;;5.80;5.80;;;;;28.48;34.57;100962.19;5132388;27;8839;-77
2021/05/28 06:40:13;;;;;;;;;11.40;11.00;;;;;28.42;34.93;100961.13;5118565;27;8915;-77
2021/05/28 06:42:54;;;;;;;;;8.60;8.00;;;;;28.39;34.90;100962.03;5117548;27;8927;-77
2021/05/28 06:45:22;;;;;;;;;4.00;4.00;;;;;28.25;31.95;100966.00;5115751;27;8867;-78
2021/05/28 06:48:21;;;;;;;;;8.20;8.20;;;;;28.62;32.70;100963.84;5119385;27;8890;-78
2021/05/28 06:50:50;;;;;;;;;7.80;6.80;;;;;28.44;32.79;100964.31;5116884;27;8866;-78
2021/05/28 06:53:45;;;;;;;;;9.20;8.20;;;;;28.78;32.09;100963.78;5134445;27;8839;-78
2021/05/28 06:56:13;;;;;;;;;9.60;9.40;;;;;29.07;32.59;100960.13;5135656;27;8843;-78
2021/05/28 06:58:47;;;;;;;;;10.40;10.40;;;;;29.24;31.70;100966.53;5135818;27;8903;-78
2021/05/28 07:01:17;;;;;;;;;10.20;10.20;;;;;29.55;31.81;100964.78;5117289;27;8888;-77
2021/05/28 07:03:46;;;;;;;;;4.20;4.20;;;;;29.82;30.74;100963.50;5117669;27;8841;-78
2021/05/28 07:06:14;;;;;;;;;7.00;7.00;;;;;29.91;30.78;100963.63;5117051;27;8831;-77
2021/05/28 07:09:10;;;;;;;;;12.00;10.80;;;;;30.06;30.28;100972.47;5133252;27;8979;-78
2021/05/28 07:11:48;;;;;;;;;8.80;8.80;;;;;29.75;30.88;100961.69;5133980;27;8894;-77
2021/05/28 07:14:17;;;;;;;;;8.40;8.40;;;;;29.71;30.58;100963.06;5115508;27;8824;-78
2021/05/28 07:17:00;;;;;;;;;6.60;6.60;;;;;29.51;30.69;100966.94;5133655;27;8871;-78
2021/05/28 07:19:30;;;;;;;;;9.00;8.60;;;;;29.55;31.01;100958.28;5136035;27;9059;-76
2021/05/28 07:22:14;;;;;;;;;5.20;5.20;;;;;29.88;29.79;100970.22;5118197;27;8878;-75
2021/05/28 07:25:04;;;;;;;;;3.00;3.00;;;;;29.63;30.16;100951.88;5140866;27;9608;-77
2021/05/28 07:27:32;;;;;;;;;6.00;5.00;;;;;29.98;29.99;100954.00;5140166;27;8835;-77
2021/05/28 07:30:03;;;;;;;;;2.80;2.80;;;;;29.76;30.05;100954.75;5134029;27;8828;-78
2021/05/28 07:32:31;;;;;;;;;4.80;4.80;;;;;29.71;30.20;100955.31;5135718;27;8877;-78
2021/05/28 07:35:01;;;;;;;;;5.20;5.20;;;;;30.01;30.22;100958.81;5116372;27;8835;-77
2021/05/28 07:37:31;;;;;;;;;4.60;4.00;;;;;29.95;30.39;100961.44;5134074;27;8959;-78
2021/05/28 07:40:14;;;;;;;;;2.00;2.00;;;;;30.13;29.71;100953.09;5132888;27;8827;-78
2021/05/28 07:42:42;;;;;;;;;2.80;2.80;;;;;29.73;30.00;100954.84;5115313;27;8862;-78
2021/05/28 07:45:24;;;;;;;;;2.80;2.80;;;;;29.78;30.61;100937.19;5108820;27;8853;-79
2021/05/28 07:47:54;;;;;;;;;3.40;3.40;;;;;30.00;32.37;100938.06;5114847;27;8870;-80
2021/05/28 07:50:23;;;;;;;;;2.80;2.80;;;;;30.16;30.89;100931.44;5100268;27;8901;-78
2021/05/28 07:52:52;;;;;;;;;4.80;4.00;;;;;30.18;32.50;100941.09;5127836;27;8827;-78
2021/05/28 07:55:20;;;;;;;;;3.00;3.00;;;;;30.11;30.24;100935.66;5122667;27;8880;-79
2021/05/28 07:57:48;;;;;;;;;3.00;3.00;;;;;30.15;31.20;100929.84;5117187;27;8853;-77
2021/05/28 08:00:16;;;;;;;;;3.00;3.00;;;;;30.55;29.78;100932.88;5104920;27;8833;-78
2021/05/28 08:02:47;;;;;;;;;2.60;2.60;;;;;31.02;30.70;100928.31;5094839;27;8865;-78
2021/05/28 08:05:43;;;;;;;;;3.20;3.20;;;;;31.03;30.66;100919.28;5124997;27;8829;-78
2021/05/28 08:08:11;;;;;;;;;4.20;4.20;;;;;31.18;30.00;100919.50;5122014;27;8853;-78
2021/05/28 08:11:08;;;;;;;;;3.20;3.20;;;;;31.31;29.39;100925.97;5108892;28;8853;-79
2021/05/28 08:14:04;;;;;;;;;3.00;3.00;;;;;31.25;29.14;100908.63;5084838;28;8863;-77
2021/05/28 08:17:00;;;;;;;;;8.20;8.00;;;;;31.38;29.35;100919.16;5091769;28;8848;-78
2021/05/28 08:19:30;;;;;;;;;2.20;2.20;;;;;31.26;30.14;100910.22;5080203;28;9692;-78
2021/05/28 08:22:12;;;;;;;;;3.00;3.00;;;;;31.20;29.38;100902.69;5104729;28;8937;-75
2021/05/28 08:24:45;;;;;;;;;4.40;4.40;;;;;31.69;30.17;100897.03;5107956;28;8886;-78
2021/05/28 08:27:35;;;;;;;;;7.60;7.00;;;;;31.63;29.12;100901.00;5112861;28;8860;-78
2021/05/28 08:30:39;;;;;;;;;4.20;4.20;;;;;31.50;29.78;100909.66;5112152;28;8849;-77
2021/05/28 08:33:12;;;;;;;;;2.00;2.00;;;;;31.54;28.70;100898.91;5112398;28;8868;-78
2021/05/28 08:36:08;;;;;;;;;2.60;2.60;;;;;31.83;29.55;100900.59;5113562;28;8837;-77
2021/05/28 08:38:38;;;;;;;;;3.00;3.00;;;;;31.91;28.94;100890.44;5101198;28;9610;-75
2021/05/28 08:41:22;;;;;;;;;3.20;3.20;;;;;32.13;29.15;100884.56;5076320;28;8847;-76
2021/05/28 08:43:52;;;;;;;;;3.60;3.60;;;;;32.53;28.97;100885.25;5094756;28;8855;-76
2021/05/28 08:46:22;;;;;;;;;3.00;3.00;;;;;32.29;29.43;100898.59;5102335;28;8875;-77
2021/05/28 08:48:51;;;;;;;;;4.00;4.00;;;;;32.60;29.28;100898.44;5093003;28;8847;-75
2021/05/28 08:51:21;;;;;;;;;5.00;4.40;;;;;32.21;29.12;100892.38;5113056;28;8837;-74
2021/05/28 08:53:48;;;;;;;;;3.00;3.00;;;;;32.33;30.33;100891.44;5112280;28;8841;-74
2021/05/28 08:56:17;;;;;;;;;2.00;2.00;;;;;32.35;29.34;100879.50;5094999;28;8845;-72
2021/05/28 08:58:45;;;;;;;;;2.40;2.40;;;;;32.16;30.41;100890.16;5083238;28;8843;-73
2021/05/28 09:01:14;;;;;;;;;2.40;2.40;;;;;32.22;29.41;100891.13;5120754;28;8926;-74
2021/05/28 09:03:43;;;;;;;;;2.00;2.00;;;;;31.74;29.66;100899.25;5101935;28;8910;-73
2021/05/28 09:06:41;;;;;;;;;0.40;0.40;;;;;31.53;29.32;100898.09;5101296;28;8868;-74
2021/05/28 09:09:17;;;;;;;;;2.60;2.00;;;;;31.11;30.41;100900.59;5098850;28;8919;-75
2021/05/28 09:12:09;;;;;;;;;2.60;2.60;;;;;31.09;30.83;100896.63;5127470;27;8848;-75
2021/05/28 09:15:17;;;;;;;;;6.20;4.40;;;;;31.02;31.89;100899.75;5095874;28;8841;-75
2021/05/28 09:17:50;;;;;;;;;1.00;1.00;;;;;31.33;30.29;100896.91;5136680;27;8843;-75
2021/05/28 09:20:19;;;;;;;;;3.40;3.40;;;;;31.29;30.64;100897.06;5133935;27;8851;-76
2021/05/28 09:23:17;;;;;;;;;2.20;2.20;;;;;31.68;29.55;100881.16;5141603;27;9576;-75
2021/05/28 09:26:02;;;;;;;;;2.00;2.00;;;;;32.03;30.36;100886.63;5143445;27;8839;-76
2021/05/28 09:28:36;;;;;;;;;2.00;2.00;;;;;31.83;29.93;100889.97;5135139;27;8919;-77
2021/05/28 09:31:08;;;;;;;;;0.80;0.80;;;;;32.02;29.28;100880.13;5137552;27;8847;-76
2021/05/28 09:33:41;;;;;;;;;2.00;2.00;;;;;32.36;28.30;100881.13;5136913;27;9572;-76
2021/05/28 09:36:22;;;;;;;;;2.00;2.00;;;;;32.36;29.41;100881.94;5137541;27;8827;-76
2021/05/28 09:39:13;;;;;;;;;2.00;2.00;;;;;32.18;28.95;100881.88;5134886;27;8867;-75
2021/05/28 09:41:56;;;;;;;;;2.00;2.00;;;;;32.37;28.73;100879.84;5102041;27;8835;-74
2021/05/28 09:44:26;;;;;;;;;4.40;4.40;;;;;32.40;30.28;100881.75;5132345;27;8859;-75
2021/05/28 09:47:15;;;;;;;;;2.60;2.60;;;;;32.72;28.41;100871.69;5135666;27;8883;-74
2021/05/28 09:49:54;;;;;;;;;4.20;3.00;;;;;32.88;28.41;100865.63;5097661;28;9569;-76
2021/05/28 09:52:32;;;;;;;;;2.00;2.00;;;;;32.79;28.66;100876.28;5119537;27;8854;-75
2021/05/28 09:55:05;;;;;;;;;3.00;3.00;;;;;32.98;27.54;100872.13;5136565;27;8843;-73
2021/05/28 09:57:49;;;;;;;;;1.00;1.00;;;;;32.97;28.70;100873.38;5134716;27;8865;-74
2021/05/28 10:00:45;;;;;;;;;1.40;1.40;;;;;32.84;27.28;100867.84;5136542;27;8835;-75
2021/05/28 10:03:26;;;;;;;;;3.40;3.40;;;;;32.26;27.57;100863.13;5136122;27;8843;-75
2021/05/28 10:05:58;;;;;;;;;3.40;1.80;;;;;32.63;27.06;100865.97;5138674;27;8854;-77
2021/05/28 10:08:58;;;;;;;;;10.40;8.40;;;;;32.33;28.22;100865.69;5135552;27;8874;-76
2021/05/28 10:11:55;;;;;;;;;13.00;13.00;;;;;32.36;29.34;100863.97;5136187;27;8948;-74
2021/05/28 10:14:51;;;;;;;;;6.40;6.40;;;;;32.03;30.19;100858.81;5134822;27;8843;-78
2021/05/28 10:17:22;;;;;;;;;5.80;5.20;;;;;32.36;28.25;100861.09;5137181;27;8819;-77
2021/05/28 10:20:06;;;;;;;;;6.00;6.00;;;;;32.16;28.33;100860.75;5134852;27;8913;-75
2021/05/28 10:23:02;;;;;;;;;14.60;14.60;;;;;31.78;29.55;100854.19;5134600;27;8855;-77
2021/05/28 10:25:47;;;;;;;;;17.00;17.00;;;;;32.10;28.88;100858.50;5137339;27;8898;-76
2021/05/28 10:28:21;;;;;;;;;5.40;5.40;;;;;32.12;29.09;100865.81;5120177;27;8835;-76
2021/05/28 10:31:17;;;;;;;;;10.00;9.80;;;;;31.59;30.84;100857.44;5134748;27;8854;-75
2021/05/28 10:34:12;;;;;;;;;3.20;3.20;;;;;31.10;31.57;100856.16;5134856;27;8811;-77
2021/05/28 10:37:27;;;;;;;;;6.00;6.00;;;;;30.54;30.96;100854.22;5119561;27;8839;-77
2021/05/28 10:40:28;;;;;;;;;5.00;5.00;;;;;30.51;33.12;100843.72;5113011;28;9025;-76
2021/05/28 10:43:24;;;;;;;;;7.20;7.00;;;;;30.17;33.57;100844.59;5134241;27;8920;-77
2021/05/28 10:46:10;;;;;;;;;2.80;2.80;;;;;30.14;32.60;100842.69;5119489;27;8862;-78
2021/05/28 10:49:09;;;;;;;;;0.40;0.40;;;;;29.88;33.17;100841.94;5121102;27;8950;-77
2021/05/28 10:52:06;;;;;;;;;4.60;4.60;;;;;29.85;34.15;100843.66;5134359;27;8847;-76
2021/05/28 10:54:36;;;;;;;;;2.80;2.80;;;;;30.23;32.49;100834.19;5135540;27;8937;-76
2021/05/28 10:57:34;;;;;;;;;0.60;0.60;;;;;29.95;32.81;100826.63;5121376;27;8824;-76
2021/05/28 11:00:09;;;;;;;;;5.00;5.00;;;;;29.96;34.43;100825.38;5134940;27;8881;-76
2021/05/28 11:02:49;;;;;;;;;3.00;3.00;;;;;29.90;35.01;100828.84;5135410;27;8815;-76
2021/05/28 11:05:42;;;;;;;;;2.60;2.60;;;;;29.92;33.08;100828.38;5134822;27;8915;-76
2021/05/28 11:08:48;;;;;;;;;2.40;2.40;;;;;29.91;33.48;100821.06;5134452;27;8865;-76
2021/05/28 11:11:41;;;;;;;;;2.00;2.00;;;;;29.92;32.82;100825.53;5114504;28;8914;-79
2021/05/28 11:15:19;;;;;;;;;2.60;2.60;;;;;29.59;33.96;100813.63;5117586;27;8815;-74
2021/05/28 11:17:53;;;;;;;;;3.00;3.00;;;;;29.50;34.18;100822.88;5125424;27;8847;-74
2021/05/28 11:20:49;;;;;;;;;4.00;4.00;;;;;29.48;35.17;100813.19;5133911;27;8839;-75
2021/05/28 11:23:23;;;;;;;;;3.40;3.40;;;;;29.67;34.75;100802.78;5134490;27;8839;-74
2021/05/28 11:26:27;;;;;;;;;4.80;4.00;;;;;29.57;34.38;100802.69;5134656;27;8851;-74
2021/05/28 11:29:22;;;;;;;;;1.00;1.00;;;;;29.26;34.10;100802.50;5132791;27;8885;-77
2021/05/28 11:31:55;;;;;;;;;3.20;3.20;;;;;29.28;34.79;100797.13;5125606;27;8841;-76
2021/05/28 11:35:13;;;;;;;;;3.00;3.00;;;;;29.17;34.49;100798.75;5100094;28;8830;-77
2021/05/28 11:38:12;;;;;;;;;2.20;2.20;;;;;29.32;34.83;100788.47;5113847;28;8848;-76
2021/05/28 11:40:42;;;;;;;;;4.00;4.00;;;;;29.54;34.72;100780.81;5119760;27;8892;-77
2021/05/28 11:43:18;;;;;;;;;5.00;5.00;;;;;29.92;35.19;100779.09;5134608;27;8831;-74
2021/05/28 11:46:14;;;;;;;;;4.00;4.00;;;;;30.07;34.59;100783.03;5133122;27;8835;-75
2021/05/28 11:49:10;;;;;;;;;3.40;3.40;;;;;29.81;34.56;100780.28;5133357;27;8823;-75
2021/05/28 11:52:10;;;;;;;;;3.20;3.20;;;;;30.31;34.50;100772.78;5133585;27;8832;-74
2021/05/28 11:55:12;;;;;;;;;2.80;2.80;;;;;30.58;33.33;100765.63;5119376;27;8839;-75
2021/05/28 11:58:06;;;;;;;;;3.00;3.00;;;;;30.73;34.34;100766.69;5134457;27;8828;-74
2021/05/28 12:01:03;;;;;;;;;3.20;3.20;;;;;30.93;34.54;100769.16;5133157;27;8839;-75
2021/05/28 12:03:53;;;;;;;;;3.00;3.00;;;;;30.40;34.37;100767.13;5115761;27;8843;-75
2021/05/28 12:06:21;;;;;;;;;1.40;1.40;;;;;30.03;34.87;100774.59;5134300;27;8978;-75
2021/05/28 12:09:06;;;;;;;;;3.00;3.00;;;;;30.38;33.94;100771.72;5134169;27;8978;-75
2021/05/28 12:12:02;;;;;;;;;7.80;3.40;;;;;30.38;35.02;100772.50;5119447;27;8874;-75
2021/05/28 12:15:08;;;;;;;;;2.00;2.00;;;;;30.00;34.77;100769.81;5132576;27;8827;-75
2021/05/28 12:18:29;;;;;;;;;4.80;3.60;;;;;30.00;35.59;100761.28;5112127;28;8919;-74
2021/05/28 12:21:18;;;;;;;;;3.80;3.80;;;;;29.99;36.15;100761.75;5096991;28;8842;-74
2021/05/28 12:24:17;;;;;;;;;6.40;6.40;;;;;29.86;36.15;100759.72;5117769;28;8833;-74
2021/05/28 12:27:13;;;;;;;;;8.80;8.00;;;;;30.02;36.72;100757.94;5118832;28;8841;-76
2021/05/28 12:30:10;;;;;;;;;6.20;6.20;;;;;30.29;36.32;100751.66;5119158;27;8842;-73
2021/05/28 12:33:06;;;;;;;;;4.00;4.00;;;;;29.59;36.46;100751.72;5136651;27;8823;-75
2021/05/28 12:35:51;;;;;;;;;5.80;5.80;;;;;29.75;37.14;100756.50;5118107;27;8828;-74
2021/05/28 12:38:45;;;;;;;;;4.20;4.20;;;;;29.46;37.58;100750.97;5137195;27;8839;-74
2021/05/28 12:41:42;;;;;;;;;4.00;4.00;;;;;29.41;36.54;100747.91;5137121;27;8922;-74